Time;durP1;ratioP1;P1;durP2;ratioP2;P2;SDS_P1;SDS_P2;PMS_P1;PMS_P2;Temp;Humidity;BMP_temperature;BMP_pressure;BME280_temperature;BME280_humidity;BME280_pressure;Samples;Min_cycle;Max_cycle;Signal;HPM_P1;HPM_P2
2022/03/10 00:00:58;;;;;;;12.38;7.72;;;;;;;0.57;100.00;102917.34;4823112;29;20529;-79
2022/03/10 00:03:24;;;;;;;14.02;7.53;;;;;;;0.34;100.00;102878.00;4822678;29;20035;-79
2022/03/10 00:05:49;;;;;;;16.08;7.63;;;;;;;0.23;100.00;102852.06;4835863;29;20475;-79
2022/03/10 00:08:15;;;;;;;12.52;6.65;;;;;;;0.60;100.00;102914.53;4826348;29;20048;-79
2022/03/10 00:10:40;;;;;;;15.38;7.32;;;;;;;0.70;100.00;102931.66;4826553;29;20049;-79
2022/03/10 00:13:05;;;;;;;14.77;7.43;;;;;;;0.81;100.00;102940.81;4842573;29;20125;-79
2022/03/10 00:15:31;;;;;;;11.52;7.22;;;;;;;0.79;100.00;102943.53;4826159;29;20134;-79
2022/03/10 00:17:56;;;;;;;12.43;6.55;;;;;;;0.76;100.00;102933.09;4824445;29;20446;-78
2022/03/10 00:20:22;;;;;;;9.45;6.22;;;;;;;0.26;100.00;102843.09;4797982;29;20038;-79
2022/03/10 00:22:50;;;;;;;16.20;6.40;;;;;;;0.76;100.00;102925.13;4817933;29;20045;-78
2022/03/10 00:25:16;;;;;;;13.02;6.57;;;;;;;0.59;100.00;102893.41;4824446;29;20106;-79
2022/03/10 00:27:43;;;;;;;8.95;6.05;;;;;;;0.83;100.00;102931.84;4823520;29;20457;-79
2022/03/10 00:30:10;;;;;;;8.93;5.70;;;;;;;0.89;100.00;102935.94;4825220;29;20053;-79
2022/03/10 00:32:49;;;;;;;9.52;5.75;;;;;;;0.86;100.00;102922.84;4822482;29;20131;-79
2022/03/10 00:35:18;;;;;;;8.85;5.28;;;;;;;0.91;100.00;102926.97;4821991;29;20475;-79
2022/03/10 00:37:45;;;;;;;10.43;5.45;;;;;;;0.81;100.00;102909.84;4823969;29;20034;-78
2022/03/10 00:40:11;;;;;;;8.20;5.28;;;;;;;0.89;100.00;102920.03;4823204;29;20031;-79
2022/03/10 00:42:38;;;;;;;9.15;5.10;;;;;;;0.98;100.00;102934.59;4823960;29;20069;-79
2022/03/10 00:45:04;;;;;;;9.57;5.03;;;;;;;0.78;100.00;102902.06;4842028;29;20044;-79
2022/03/10 00:47:30;;;;;;;7.38;4.82;;;;;;;0.99;100.00;102936.28;4826846;29;20030;-79
2022/03/10 00:49:55;;;;;;;7.97;4.68;;;;;;;0.97;100.00;102935.53;4816397;29;20039;-80
2022/03/10 00:52:21;;;;;;;15.27;5.13;;;;;;;0.97;100.00;102949.63;4814577;29;20103;-79
2022/03/10 00:54:46;;;;;;;10.43;4.43;;;;;;;1.04;100.00;102958.09;4819224;29;20373;-79
2022/03/10 00:57:12;;;;;;;8.90;5.15;;;;;;;0.96;100.00;102969.16;4827987;29;20518;-79
2022/03/10 00:59:37;;;;;;;7.00;4.78;;;;;;;1.00;100.00;102970.69;4816151;29;20047;-78
2022/03/10 01:02:02;;;;;;;10.32;4.53;;;;;;;0.91;100.00;102956.13;4838609;29;20042;-79
2022/03/10 01:04:28;;;;;;;7.18;4.18;;;;;;;0.82;100.00;102943.34;4826114;29;20534;-79
2022/03/10 01:06:53;;;;;;;8.10;3.67;;;;;;;0.97;100.00;102959.38;4810867;29;20376;-79
2022/03/10 01:09:19;;;;;;;7.82;4.10;;;;;;;0.87;100.00;102943.97;4825646;29;20117;-80
2022/03/10 01:11:44;;;;;;;7.07;3.90;;;;;;;0.85;100.00;102948.50;4826632;29;20388;-79
2022/03/10 01:14:10;;;;;;;7.10;3.45;;;;;;;0.94;100.00;102976.31;4824419;29;20034;-79
2022/03/10 01:16:35;;;;;;;6.97;3.53;;;;;;;0.97;100.00;102968.19;4826819;29;20475;-79
2022/03/10 01:19:01;;;;;;;5.47;3.58;;;;;;;0.95;100.00;102964.75;4825934;29;20055;-79
2022/03/10 01:21:26;;;;;;;5.07;3.10;;;;;;;0.90;100.00;102959.72;4827562;29;20090;-79
2022/03/10 01:23:51;;;;;;;6.05;3.30;;;;;;;0.93;100.00;102970.16;4825614;29;20077;-79
2022/03/10 01:26:17;;;;;;;5.88;3.22;;;;;;;0.90;100.00;102965.03;4824664;29;20027;-80
2022/03/10 01:28:42;;;;;;;8.40;2.90;;;;;;;0.88;100.00;102966.03;4827309;29;20034;-79
2022/03/10 01:31:08;;;;;;;10.60;3.03;;;;;;;0.73;100.00;102941.22;4795060;29;20398;-79
2022/03/10 01:33:34;;;;;;;4.63;2.90;;;;;;;0.85;100.00;102967.03;4825878;29;20078;-79
2022/03/10 01:36:00;;;;;;;8.02;3.58;;;;;;;0.79;100.00;102954.13;4825480;29;20080;-80
2022/03/10 01:38:25;;;;;;;7.63;2.95;;;;;;;0.85;100.00;102966.19;4810989;29;20368;-79
2022/03/10 01:40:52;;;;;;;8.23;2.80;;;;;;;0.76;100.00;102948.13;4823997;29;20030;-79
2022/03/10 01:43:17;;;;;;;5.55;3.08;;;;;;;0.75;100.00;102944.63;4827348;29;20038;-79
2022/03/10 01:45:42;;;;;;;10.77;2.70;;;;;;;0.80;100.00;102958.50;4824014;29;20523;-79
2022/03/10 01:48:08;;;;;;;6.88;3.03;;;;;;;0.56;100.00;102909.47;4827597;29;20421;-79
2022/03/10 01:50:33;;;;;;;5.10;2.75;;;;;;;0.79;100.00;102945.31;4810237;29;20105;-79
2022/03/10 01:53:01;;;;;;;7.38;2.40;;;;;;;0.71;100.00;102924.53;4825056;29;20038;-79
2022/03/10 01:55:27;;;;;;;6.35;2.38;;;;;;;0.64;100.00;102917.88;4824571;29;20049;-79
2022/03/10 01:57:53;;;;;;;6.35;2.50;;;;;;;0.85;100.00;102943.19;4825972;29;20026;-79
2022/03/10 02:00:18;;;;;;;7.55;2.47;;;;;;;0.78;100.00;102933.88;4824573;29;20030;-79
2022/03/10 02:02:44;;;;;;;7.53;2.22;;;;;;;0.77;100.00;102926.88;4802073;29;20038;-79
2022/03/10 02:05:10;;;;;;;4.75;2.13;;;;;;;0.86;100.00;102918.41;4804509;29;20041;-79
2022/03/10 02:10:40;;;;;;;6.63;2.35;;;;;;;0.89;100.00;102926.22;4833769;29;20457;-79
2022/03/10 02:13:05;;;;;;;5.95;2.13;;;;;;;1.01;100.00;102931.75;4816245;29;20095;-79
2022/03/10 02:18:17;;;;;;;5.72;2.42;;;;;;;0.98;100.00;102921.31;4826291;29;20102;-79
2022/03/10 02:20:43;;;;;;;9.00;2.65;;;;;;;1.03;100.00;102941.34;4825468;29;20121;-79
2022/03/10 02:23:11;;;;;;;10.32;2.20;;;;;;;0.87;100.00;102920.13;4826557;29;20113;-79
2022/03/10 02:25:38;;;;;;;5.75;2.28;;;;;;;1.05;100.00;102942.09;4826261;29;20050;-79
2022/03/10 02:28:05;;;;;;;6.60;2.30;;;;;;;1.07;100.00;102948.19;4823834;29;20038;-80
2022/03/10 02:30:34;;;;;;;5.65;2.25;;;;;;;0.98;100.00;102924.81;4793424;29;20438;-78
2022/03/10 02:33:00;;;;;;;7.93;2.50;;;;;;;1.13;100.00;102947.00;4806899;29;20375;-79
2022/03/10 02:35:26;;;;;;;8.70;2.53;;;;;;;1.13;100.00;102933.75;4830893;29;20023;-79
2022/03/10 02:37:52;;;;;;;6.25;2.60;;;;;;;1.14;100.00;102936.28;4834630;29;20049;-79
2022/03/10 02:40:19;;;;;;;10.48;2.63;;;;;;;1.19;100.00;102928.06;4836273;29;20030;-79
2022/03/10 02:42:44;;;;;;;11.90;2.90;;;;;;;1.23;100.00;102924.34;4825459;29;20034;-79
2022/03/10 02:45:11;;;;;;;10.32;3.00;;;;;;;1.16;100.00;102922.97;4825438;29;20048;-79
2022/03/10 02:47:37;;;;;;;6.70;2.45;;;;;;;1.21;100.00;102925.34;4832279;29;20038;-79
2022/03/10 02:50:06;;;;;;;6.63;2.97;;;;;;;1.08;100.00;102911.91;4842900;29;20530;-79
2022/03/10 02:52:35;;;;;;;10.27;3.33;;;;;;;1.23;100.00;102940.25;4839336;29;20084;-80
2022/03/10 02:55:03;;;;;;;9.02;3.28;;;;;;;1.20;100.00;102951.03;4843025;29;20037;-79
2022/03/10 02:57:30;;;;;;;9.13;2.83;;;;;;;1.17;100.00;102945.88;4837473;29;20053;-79
2022/03/10 02:59:56;;;;;;;8.40;2.70;;;;;;;1.08;100.00;102941.09;4810531;29;20034;-80
2022/03/10 03:02:22;;;;;;;10.68;3.20;;;;;;;1.10;100.00;102955.13;4822651;29;20045;-79
2022/03/10 03:04:47;;;;;;;8.75;2.67;;;;;;;1.09;100.00;102967.53;4807952;29;20043;-79
2022/03/10 03:07:14;;;;;;;6.30;3.10;;;;;;;0.93;100.00;102943.66;4830653;29;20046;-79
2022/03/10 03:09:39;;;;;;;7.70;2.88;;;;;;;0.53;100.00;102875.19;4830093;29;20035;-79
2022/03/10 03:12:05;;;;;;;8.82;3.08;;;;;;;1.04;100.00;102972.22;4844598;29;20031;-79
2022/03/10 03:14:32;;;;;;;8.75;4.60;;;;;;;0.91;100.00;102934.06;4827365;29;20034;-79
2022/03/10 03:16:57;;;;;;;9.15;4.22;;;;;;;1.14;100.00;102965.47;4826908;29;20524;-80
2022/03/10 03:19:24;;;;;;;9.48;4.47;;;;;;;1.15;100.00;102947.75;4824988;29;20046;-79
2022/03/10 03:21:50;;;;;;;8.98;5.15;;;;;;;1.25;100.00;102970.16;4824707;29;20134;-80
2022/03/10 03:24:16;;;;;;;11.73;5.22;;;;;;;1.29;100.00;102977.03;4827325;29;20030;-78
2022/03/10 03:26:41;;;;;;;11.40;5.80;;;;;;;1.27;100.00;102975.41;4830405;29;20057;-80
2022/03/10 03:29:07;;;;;;;11.75;6.40;;;;;;;1.26;100.00;102981.63;4794740;29;20034;-80
2022/03/10 03:31:33;;;;;;;11.63;6.07;;;;;;;1.40;100.00;103002.97;4823964;29;20050;-79
2022/03/10 03:33:58;;;;;;;12.02;6.68;;;;;;;1.14;100.00;102961.97;4809627;29;20031;-79
2022/03/10 03:36:25;;;;;;;12.57;6.15;;;;;;;1.44;100.00;103003.63;4822915;29;20556;-79
2022/03/10 03:38:50;;;;;;;12.07;7.07;;;;;;;1.45;100.00;103013.31;4824656;29;20046;-79
2022/03/10 03:41:16;;;;;;;11.73;6.78;;;;;;;1.47;100.00;103011.44;4822660;29;20027;-79
2022/03/10 03:43:41;;;;;;;13.82;6.72;;;;;;;1.44;100.00;103006.28;4808592;29;20185;-79
2022/03/10 03:46:07;;;;;;;11.75;7.05;;;;;;;1.48;100.00;103006.03;4821372;29;20031;-80
2022/03/10 03:48:33;;;;;;;14.52;7.10;;;;;;;1.47;100.00;103011.44;4796992;29;20544;-80
2022/03/10 03:50:58;;;;;;;10.13;7.32;;;;;;;1.03;100.00;102932.56;4823458;29;20125;-80
2022/03/10 03:53:24;;;;;;;11.50;5.95;;;;;;;1.48;100.00;102998.06;4815184;29;20113;-80
2022/03/10 03:55:50;;;;;;;11.80;6.53;;;;;;;1.39;100.00;103003.88;4824220;29;20541;-80
2022/03/10 03:58:18;;;;;;;9.07;6.03;;;;;;;1.46;100.00;103018.53;4836091;29;20035;-79
2022/03/10 04:00:44;;;;;;;10.60;5.55;;;;;;;1.47;100.00;103027.34;4823911;29;20034;-80
2022/03/10 04:03:11;;;;;;;9.80;5.07;;;;;;;1.45;100.00;103030.06;4807987;29;20106;-80
2022/03/10 04:05:38;;;;;;;10.90;4.45;;;;;;;1.42;100.00;103030.22;4815306;29;20050;-79
2022/03/10 04:08:05;;;;;;;8.32;4.85;;;;;;;1.33;100.00;103020.16;4791731;29;20073;-80
2022/03/10 04:10:33;;;;;;;8.05;4.78;;;;;;;1.31;100.00;103022.88;4811963;29;20041;-80
2022/03/10 04:12:59;;;;;;;10.00;4.88;;;;;;;1.29;100.00;103019.47;4824285;29;20427;-79
2022/03/10 04:15:24;;;;;;;10.75;4.47;;;;;;;1.43;100.00;103037.28;4823865;29;20030;-80
2022/03/10 04:17:50;;;;;;;7.57;4.45;;;;;;;1.42;100.00;103043.50;4816195;29;20433;-80
2022/03/10 04:20:15;;;;;;;8.85;4.78;;;;;;;1.24;100.00;103010.03;4808860;29;20046;-80
2022/03/10 04:22:42;;;;;;;8.25;5.07;;;;;;;1.38;100.00;103037.50;4829555;29;20062;-80
2022/03/10 04:25:08;;;;;;;10.30;4.65;;;;;;;1.46;100.00;103044.19;4828249;29;20037;-79
2022/03/10 04:27:35;;;;;;;9.95;5.47;;;;;;;1.47;100.00;103051.22;4842429;29;20094;-80
2022/03/10 04:30:01;;;;;;;9.60;5.43;;;;;;;1.25;100.00;103019.72;4838770;29;20027;-80
2022/03/10 04:32:27;;;;;;;9.27;5.90;;;;;;;1.21;100.00;102995.16;4816220;29;20137;-80
2022/03/10 04:34:53;;;;;;;10.48;6.00;;;;;;;1.42;100.00;103022.28;4794699;29;20027;-79
2022/03/10 04:37:19;;;;;;;8.32;6.13;;;;;;;1.56;100.00;103050.72;4836756;29;20461;-80
2022/03/10 04:39:44;;;;;;;9.13;5.88;;;;;;;1.55;100.00;103060.47;4824351;29;20094;-80
2022/03/10 04:42:10;;;;;;;9.57;5.70;;;;;;;1.59;100.00;103069.09;4822320;29;20023;-80
2022/03/10 04:44:36;;;;;;;9.30;6.43;;;;;;;1.60;100.00;103077.00;4823187;29;20027;-80
2022/03/10 04:47:02;;;;;;;10.32;5.72;;;;;;;1.62;100.00;103083.09;4822711;29;20418;-79
2022/03/10 04:49:27;;;;;;;9.68;6.40;;;;;;;1.45;100.00;103055.75;4835267;29;20041;-79
2022/03/10 04:51:53;;;;;;;9.63;6.65;;;;;;;1.65;100.00;103082.03;4841484;29;20054;-80
2022/03/10 04:54:18;;;;;;;11.00;6.97;;;;;;;1.68;100.00;103083.66;4841633;29;20030;-79
2022/03/10 04:56:44;;;;;;;10.98;6.47;;;;;;;1.52;100.00;103051.81;4791678;29;20474;-80
2022/03/10 04:59:10;;;;;;;11.48;6.20;;;;;;;1.69;100.00;103067.69;4820361;29;20027;-79
2022/03/10 05:01:35;;;;;;;9.60;6.47;;;;;;;1.72;100.00;103069.28;4818850;29;20038;-80
2022/03/10 05:04:00;;;;;;;10.07;7.25;;;;;;;1.55;100.00;103033.06;4824765;29;20461;-80
2022/03/10 05:06:26;;;;;;;9.88;6.57;;;;;;;1.72;100.00;103066.63;4823316;29;20050;-79
2022/03/10 05:08:51;;;;;;;10.55;6.38;;;;;;;1.59;100.00;103046.09;4807848;29;20365;-78
2022/03/10 05:11:17;;;;;;;9.75;6.90;;;;;;;1.77;100.00;103065.44;4790102;29;20042;-79
2022/03/10 05:13:42;;;;;;;11.65;6.97;;;;;;;1.62;100.00;103043.28;4842106;29;20106;-80
2022/03/10 05:16:07;;;;;;;10.65;6.93;;;;;;;1.68;100.00;103057.13;4842770;29;20030;-79
2022/03/10 05:18:33;;;;;;;10.70;6.72;;;;;;;1.83;100.00;103078.38;4831999;29;20038;-80
2022/03/10 05:20:58;;;;;;;10.63;6.40;;;;;;;1.83;100.00;103072.22;4832255;29;20049;-80
2022/03/10 05:23:23;;;;;;;10.75;6.05;;;;;;;1.87;100.00;103076.38;4830476;29;20038;-81
2022/03/10 05:25:49;;;;;;;12.68;6.93;;;;;;;1.84;100.00;103068.59;4830856;29;20098;-79
2022/03/10 05:28:14;;;;;;;10.63;6.38;;;;;;;1.72;100.00;103048.91;4826760;29;20079;-79
2022/03/10 05:30:41;;;;;;;9.35;6.55;;;;;;;1.91;100.00;103077.91;4828240;29;20151;-80
2022/03/10 05:33:11;;;;;;;10.93;6.72;;;;;;;1.88;100.00;103070.97;4814436;29;20079;-79
2022/03/10 05:35:37;;;;;;;11.27;7.07;;;;;;;1.95;100.00;103079.47;4822373;29;20113;-81
2022/03/10 05:38:03;;;;;;;14.05;6.30;;;;;;;1.93;100.00;103067.22;4846234;29;20061;-79
2022/03/10 05:40:28;;;;;;;12.70;6.50;;;;;;;2.00;100.00;103068.59;4839899;29;20062;-79
2022/03/10 05:42:56;;;;;;;15.02;7.35;;;;;;;2.02;100.00;103066.69;4812077;29;20041;-79
2022/03/10 05:45:22;;;;;;;11.07;6.00;;;;;;;2.03;100.00;103063.09;4827573;29;20045;-78
2022/03/10 05:47:54;;;;;;;9.45;6.00;;;;;;;2.02;100.00;103061.38;4832725;29;20037;-80
2022/03/10 05:50:20;;;;;;;11.77;6.13;;;;;;;2.07;100.00;103064.63;4843423;29;20081;-79
2022/03/10 05:52:48;;;;;;;12.23;6.35;;;;;;;1.97;100.00;103036.91;4846341;29;20049;-79
2022/03/10 05:55:15;;;;;;;10.32;6.03;;;;;;;2.06;100.00;103057.63;4808458;29;20022;-80
2022/03/10 05:57:42;;;;;;;11.32;6.32;;;;;;;2.13;100.00;103058.97;4827670;29;20054;-78
2022/03/10 06:00:09;;;;;;;10.30;5.70;;;;;;;2.15;100.00;103073.00;4824185;29;20662;-79
2022/03/10 06:02:34;;;;;;;9.73;6.03;;;;;;;2.20;100.00;103070.94;4822554;29;20054;-80
2022/03/10 06:05:00;;;;;;;9.95;5.43;;;;;;;2.18;100.00;103064.88;4850180;29;20053;-80
2022/03/10 06:07:26;;;;;;;9.00;5.35;;;;;;;2.18;100.00;103056.03;4845658;29;20037;-80
2022/03/10 06:09:52;;;;;;;11.00;5.80;;;;;;;2.20;100.00;103054.16;4825057;29;20034;-79
2022/03/10 06:12:23;;;;;;;10.82;5.80;;;;;;;2.20;100.00;103051.50;4812375;29;20030;-79
2022/03/10 06:14:51;;;;;;;10.13;5.35;;;;;;;2.32;100.00;103074.72;4828574;29;20150;-80
2022/03/10 06:17:17;;;;;;;8.55;5.30;;;;;;;2.28;100.00;103067.84;4828591;29;20362;-81
2022/03/10 06:19:42;;;;;;;11.27;5.28;;;;;;;2.33;100.00;103076.41;4831687;29;20047;-82
2022/03/10 06:22:08;;;;;;;11.30;6.15;;;;;;;2.32;100.00;103072.91;4838516;29;20021;-82
2022/03/10 06:24:33;;;;;;;9.80;5.70;;;;;;;2.40;100.00;103083.06;4840940;29;20088;-82
2022/03/10 06:26:58;;;;;;;11.68;5.47;;;;;;;0.91;100.00;102830.69;4983243;23;20145;-81
2022/03/10 06:29:24;;;;;;;12.00;5.45;;;;;;;0.70;100.00;102804.47;4840556;29;20164;-82
2022/03/10 06:31:51;;;;;;;10.05;5.35;;;;;;;2.47;100.00;103080.91;4841434;29;20015;-83
2022/03/10 06:34:16;;;;;;;11.38;5.53;;;;;;;0.98;100.00;102849.75;4835094;29;20106;-81
2022/03/10 06:36:42;;;;;;;11.90;5.22;;;;;;;0.77;100.00;102798.81;4829143;29;20022;-81
2022/03/10 06:39:08;;;;;;;9.25;4.90;;;;;;;2.54;100.00;103095.53;4831346;29;20050;-82
2022/03/10 06:41:33;;;;;;;9.13;5.15;;;;;;;0.83;100.00;102825.84;4844326;29;20026;-79
2022/03/10 06:43:59;;;;;;;10.40;5.15;;;;;;;1.00;100.00;102845.22;4828704;29;20079;-82
2022/03/10 06:46:24;;;;;;;9.02;4.90;;;;;;;0.60;100.00;102775.94;4823697;29;20062;-80
2022/03/10 06:48:50;;;;;;;7.85;5.03;;;;;;;1.43;100.00;102917.91;4829552;29;20030;-81
2022/03/10 06:51:15;;;;;;;11.13;4.63;;;;;;;2.25;100.00;103037.03;4824742;29;20105;-80
2022/03/10 06:53:40;;;;;;;9.63;4.78;;;;;;;2.64;100.00;103080.75;4823226;29;20030;-80
2022/03/10 06:56:06;;;;;;;7.72;4.97;;;;;;;2.68;100.00;103092.94;4821006;29;20424;-81
2022/03/10 06:58:32;;;;;;;7.00;3.83;;;;;;;2.71;100.00;103087.41;4855779;29;20018;-79
2022/03/10 07:00:58;;;;;;;5.18;3.80;;;;;;;2.77;100.00;103094.19;4825991;29;20066;-80
2022/03/10 07:03:23;;;;;;;11.75;4.93;;;;;;;2.78;100.00;103098.53;4822049;29;20158;-79
2022/03/10 07:05:49;;;;;;;8.20;4.18;;;;;;;2.80;100.00;103096.66;4807807;29;20087;-80
2022/03/10 07:08:15;;;;;;;8.35;3.70;;;;;;;2.63;100.00;103071.09;4824420;29;20080;-80
2022/03/10 07:10:40;;;;;;;10.52;3.90;;;;;;;2.88;100.00;103104.16;4828820;29;20054;-81
2022/03/10 07:13:08;;;;;;;6.05;3.10;;;;;;;2.77;100.00;103087.06;4840084;29;20091;-80
2022/03/10 07:15:33;;;;;;;6.18;3.42;;;;;;;2.92;100.00;103105.72;4850611;29;20446;-81
2022/03/10 07:17:59;;;;;;;7.55;3.28;;;;;;;2.98;100.00;103105.31;4821871;29;20034;-80
2022/03/10 07:20:24;;;;;;;8.35;3.70;;;;;;;2.74;100.00;103078.41;4804694;29;20043;-80
2022/03/10 07:22:50;;;;;;;10.48;2.70;;;;;;;2.90;100.00;103104.94;4816941;29;20041;-80
2022/03/10 07:25:15;;;;;;;9.05;3.55;;;;;;;2.92;100.00;103095.06;4823557;29;20039;-80
2022/03/10 07:27:41;;;;;;;6.18;2.85;;;;;;;3.02;100.00;103112.19;4832439;29;20065;-79
2022/03/10 07:30:07;;;;;;;7.25;3.03;;;;;;;3.04;100.00;103097.81;4815117;29;20507;-80
2022/03/10 07:32:33;;;;;;;5.63;2.40;;;;;;;2.91;100.00;103070.25;4820155;29;20533;-79
2022/03/10 07:34:59;;;;;;;8.23;3.10;;;;;;;3.15;100.00;103101.66;4806584;29;20069;-79
2022/03/10 07:37:24;;;;;;;6.65;2.55;;;;;;;3.01;100.00;103074.09;4823550;29;20500;-79
2022/03/10 07:39:50;;;;;;;7.47;2.42;;;;;;;3.23;100.00;103105.53;4807247;29;20122;-79
2022/03/10 07:42:15;;;;;;;4.10;2.60;;;;;;;3.26;100.00;103116.00;4820269;29;20047;-77
2022/03/10 07:44:41;;;;;;;5.88;2.45;;;;;;;3.22;100.00;103103.84;4836910;29;20351;-77
2022/03/10 07:47:07;;;;;;;5.82;2.50;;;;;;;3.23;100.00;103105.53;4824274;29;20026;-77
2022/03/10 07:49:32;;;;;;;5.93;2.53;;;;;;;3.23;100.00;103105.53;4806225;29;20129;-78
2022/03/10 07:51:59;;;;;;;6.60;2.05;;;;;;;3.23;100.00;103104.69;4820763;29;20050;-77
2022/03/10 07:54:25;;;;;;;4.28;2.05;;;;;;;3.40;100.00;103124.94;4819499;29;20042;-77
2022/03/10 07:56:51;;;;;;;4.82;2.20;;;;;;;3.43;100.00;103127.41;4821829;29;20117;-78
2022/03/10 07:59:16;;;;;;;4.75;2.20;;;;;;;3.39;100.00;103137.38;4817408;29;20042;-78
2022/03/10 08:01:41;;;;;;;6.85;2.78;;;;;;;3.36;100.00;103134.91;4821318;29;20139;-78
2022/03/10 08:04:07;;;;;;;5.95;2.28;;;;;;;3.43;100.00;103130.06;4832924;29;20366;-78
2022/03/10 08:06:32;;;;;;;5.38;2.70;;;;;;;3.51;100.00;103136.63;4847609;29;20028;-77
2022/03/10 08:08:58;;;;;;;4.47;2.15;;;;;;;3.35;100.00;103101.28;4823290;29;20069;-77
2022/03/10 08:11:24;;;;;;;7.93;2.50;;;;;;;3.57;100.00;103132.72;4822715;29;20126;-78
2022/03/10 08:13:50;;;;;;;6.35;2.35;;;;;;;3.34;100.00;103080.06;4831699;29;20042;-78
2022/03/10 08:16:16;;;;;;;4.85;1.92;;;;;;;3.61;100.00;103128.94;4821337;29;20027;-78
2022/03/10 08:18:41;;;;;;;11.63;2.40;;;;;;;3.66;100.00;103125.97;4817166;29;20026;-78
2022/03/10 08:21:07;;;;;;;7.57;2.30;;;;;;;3.73;100.00;103125.47;4823315;29;20445;-77
2022/03/10 08:23:32;;;;;;;4.68;2.30;;;;;;;3.68;100.00;103116.09;4821651;29;20126;-77
2022/03/10 08:25:58;;;;;;;4.45;2.20;;;;;;;3.78;100.00;103127.84;4815227;29;20057;-77
2022/03/10 08:28:26;;;;;;;4.38;2.00;;;;;;;3.69;100.00;103129.28;4842094;29;20034;-77
2022/03/10 08:30:51;;;;;;;5.80;1.98;;;;;;;3.74;100.00;103113.88;4813419;29;20039;-78
2022/03/10 08:33:17;;;;;;;4.35;1.90;;;;;;;3.76;100.00;103119.09;4803831;29;20060;-77
2022/03/10 08:35:42;;;;;;;6.45;2.20;;;;;;;3.78;100.00;103132.34;4819925;29;20105;-77
2022/03/10 08:38:08;;;;;;;4.55;1.73;;;;;;;3.72;100.00;103115.78;4800224;29;20462;-78
2022/03/10 08:40:33;;;;;;;3.88;1.73;;;;;;;3.83;100.00;103132.88;4815345;29;20111;-78
2022/03/10 08:42:59;;;;;;;5.60;2.20;;;;;;;3.87;100.00;103147.69;4812745;29;20117;-77
2022/03/10 08:45:27;;;;;;;3.97;1.83;;;;;;;3.90;100.00;103148.34;4813179;29;20030;-78
2022/03/10 08:47:55;;;;;;;2.38;1.70;;;;;;;3.89;100.00;103138.66;4846810;29;20050;-77
2022/03/10 08:50:24;;;;;;;5.20;1.90;;;;;;;3.95;100.00;103140.09;4803076;29;20445;-78
2022/03/10 08:52:50;;;;;;;4.72;1.90;;;;;;;3.93;100.00;103147.31;4814400;29;20035;-78
2022/03/10 08:55:16;;;;;;;4.68;1.80;;;;;;;3.98;100.00;103138.09;4815136;29;20481;-77
2022/03/10 08:57:42;;;;;;;5.78;2.45;;;;;;;3.96;100.00;103131.13;4847931;29;20042;-77
2022/03/10 09:00:11;;;;;;;3.97;1.90;;;;;;;4.09;100.00;103139.19;4816952;29;20046;-78
2022/03/10 09:02:37;;;;;;;3.97;2.08;;;;;;;4.03;100.00;103131.59;4818878;29;20042;-78
2022/03/10 09:05:04;;;;;;;4.82;1.60;;;;;;;4.04;100.00;103135.97;4846898;29;20453;-77
2022/03/10 09:07:29;;;;;;;4.38;1.92;;;;;;;4.06;100.00;103137.59;4824615;29;20057;-78
2022/03/10 09:09:55;;;;;;;3.45;1.73;;;;;;;4.01;100.00;103134.38;4820547;29;20381;-78
2022/03/10 09:12:20;;;;;;;2.85;1.80;;;;;;;3.94;100.00;103114.38;4828002;29;20050;-78
2022/03/10 09:14:46;;;;;;;5.15;2.38;;;;;;;4.21;100.00;103157.06;4819532;29;20127;-77
2022/03/10 09:17:13;;;;;;;2.80;1.85;;;;;;;4.19;100.00;103153.63;4825720;29;20392;-77
2022/03/10 09:19:39;;;;;;;2.20;1.70;;;;;;;4.12;100.00;103150.50;4823778;29;20043;-78
2022/03/10 09:22:04;;;;;;;3.13;1.83;;;;;;;3.97;100.00;103114.19;4820358;29;20038;-78
2022/03/10 09:24:31;;;;;;;3.55;1.83;;;;;;;4.24;100.00;103144.41;4822725;29;20054;-77
2022/03/10 09:26:57;;;;;;;5.15;2.47;;;;;;;4.30;100.00;103139.59;4818740;29;20703;-78
2022/03/10 09:29:22;;;;;;;3.08;1.70;;;;;;;4.31;100.00;103141.34;4831365;29;20035;-78
2022/03/10 09:31:47;;;;;;;3.40;1.70;;;;;;;4.22;100.00;103124.13;4820835;29;20382;-78
2022/03/10 09:34:13;;;;;;;3.95;2.13;;;;;;;4.21;100.00;103128.59;4799819;29;20045;-78
2022/03/10 09:36:38;;;;;;;5.43;2.17;;;;;;;4.35;100.00;103132.16;4846945;29;20111;-77
2022/03/10 09:39:04;;;;;;;3.33;1.70;;;;;;;4.43;100.00;103144.00;4852767;29;20141;-78
2022/03/10 09:41:30;;;;;;;4.80;1.90;;;;;;;4.41;100.00;103137.94;4830456;29;20031;-77
2022/03/10 09:43:57;;;;;;;3.50;1.85;;;;;;;4.49;100.00;103156.09;4822265;29;20107;-77
2022/03/10 09:46:23;;;;;;;5.30;2.17;;;;;;;4.40;100.00;103117.59;4825581;29;20102;-77
2022/03/10 09:48:48;;;;;;;5.65;1.98;;;;;;;4.46;100.00;103127.81;4807690;29;20034;-77
2022/03/10 09:51:15;;;;;;;4.93;2.10;;;;;;;4.57;100.00;103145.78;4809386;29;20719;-78
2022/03/10 09:53:41;;;;;;;5.10;1.98;;;;;;;4.43;100.00;103122.69;4821637;29;20034;-76
2022/03/10 09:56:08;;;;;;;3.45;1.90;;;;;;;4.48;100.00;103127.72;4821546;29;20030;-77
2022/03/10 09:58:33;;;;;;;3.47;2.20;;;;;;;4.45;100.00;103119.94;4833936;29;20049;-77
2022/03/10 10:01:08;;;;;;;5.70;2.28;;;;;;;4.55;100.00;103139.69;4820421;29;20034;-77
2022/03/10 10:03:34;;;;;;;4.82;2.33;;;;;;;4.45;100.00;103118.13;4807630;29;20035;-78
2022/03/10 10:06:01;;;;;;;4.18;1.88;;;;;;;4.49;100.00;103118.78;4820836;29;20073;-78
2022/03/10 10:08:30;;;;;;;4.97;2.10;;;;;;;4.43;100.00;103100.50;4820582;29;20049;-78
2022/03/10 10:10:59;;;;;;;4.35;2.30;;;;;;;4.69;100.00;103134.28;4822527;29;20034;-77
2022/03/10 10:13:25;;;;;;;5.28;2.50;;;;;;;4.70;100.00;103138.69;4817675;29;20084;-78
2022/03/10 10:15:59;;;;;;;4.90;2.22;;;;;;;4.67;100.00;103136.22;4819356;29;20070;-78
2022/03/10 10:18:25;;;;;;;5.43;2.50;;;;;;;4.69;100.00;103131.63;4822761;29;20079;-78
2022/03/10 10:20:53;;;;;;;3.25;2.22;;;;;;;4.86;100.00;103137.63;4814497;29;20031;-78
2022/03/10 10:23:22;;;;;;;4.45;2.45;;;;;;;4.91;100.00;103133.69;4844904;29;20034;-77
2022/03/10 10:25:53;;;;;;;3.60;2.35;;;;;;;4.77;100.00;103098.22;4819770;29;20123;-78
2022/03/10 10:28:23;;;;;;;3.95;2.38;;;;;;;4.95;100.00;103126.31;4841460;29;20027;-79
2022/03/10 10:30:54;;;;;;;4.40;2.20;;;;;;;5.01;100.00;103133.06;4818343;29;20445;-79
2022/03/10 10:33:20;;;;;;;4.05;2.67;;;;;;;4.98;100.00;103131.44;4815211;29;20031;-77
2022/03/10 10:35:46;;;;;;;4.95;2.25;;;;;;;5.09;100.00;103131.56;4821590;29;20042;-83
2022/03/10 10:38:28;;;;;;;3.20;2.17;;;;;;;4.98;100.00;103123.44;4827885;29;20486;-80
2022/03/10 10:41:29;;;;;;;3.67;2.38;;;;;;;5.18;100.00;103127.41;4833881;29;20488;-80
2022/03/10 10:44:19;;;;;;;3.05;2.25;;;;;;;5.08;100.00;103118.34;4817231;29;20612;-81
2022/03/10 10:46:48;;;;;;;4.72;2.40;;;;;;;5.25;100.00;103151.84;4824829;29;20051;-81
2022/03/10 10:49:17;;;;;;;4.20;2.63;;;;;;;5.28;100.00;103162.31;4828660;29;20041;-81
2022/03/10 10:51:45;;;;;;;5.97;2.53;;;;;;;5.27;100.00;103163.28;4829020;29;20164;-81
2022/03/10 10:54:41;;;;;;;3.58;2.38;;;;;;;5.30;100.00;103165.75;4829360;29;20034;-79
2022/03/10 10:57:06;;;;;;;3.88;2.30;;;;;;;5.34;100.00;103170.75;4823762;29;20452;-81
2022/03/10 10:59:34;;;;;;;6.80;2.88;;;;;;;5.41;100.00;103165.84;4834238;29;20103;-81
2022/03/10 11:02:09;;;;;;;3.65;2.40;;;;;;;5.50;100.00;103162.53;4842002;29;20010;-81
2022/03/10 11:04:36;;;;;;;3.45;2.50;;;;;;;5.57;100.00;103160.28;4836068;29;20030;-80
2022/03/10 11:07:02;;;;;;;5.53;2.70;;;;;;;5.54;100.00;103157.84;4832055;29;20113;-81
2022/03/10 11:09:32;;;;;;;3.83;2.47;;;;;;;5.48;100.00;103144.91;4833234;29;20029;-81
2022/03/10 11:11:58;;;;;;;6.18;3.08;;;;;;;5.57;100.00;103155.81;4820426;29;20046;-81
2022/03/10 11:14:24;;;;;;;4.35;2.50;;;;;;;5.69;100.00;103143.38;4850492;29;20038;-82
2022/03/10 11:16:50;;;;;;;3.45;2.58;;;;;;;5.72;100.00;103159.19;4844919;29;20015;-82
2022/03/10 11:19:25;;;;;;;3.10;2.03;;;;;;;4.58;100.00;102960.00;5025095;23;20082;-82
2022/03/10 11:21:57;;;;;;;3.92;2.60;;;;;;;5.80;100.00;103145.28;4845420;29;20059;-82
2022/03/10 11:24:32;;;;;;;3.42;2.15;;;;;;;5.82;100.00;103138.00;4830002;29;20425;-82